sensor_id;sensor_type;location;lat;lon;timestamp;temperature;humidity
9816;DHT22;4947;44.526;11.360;2023-04-03T00:00:19;8.80;99.90
9816;DHT22;4947;44.526;11.360;2023-04-03T00:02:48;8.90;99.90
9816;DHT22;4947;44.526;11.360;2023-04-03T00:05:19;8.90;99.90
9816;DHT22;4947;44.526;11.360;2023-04-03T00:07:47;8.90;99.90
9816;DHT22;4947;44.526;11.360;2023-04-03T00:10:18;8.90;99.90
9816;DHT22;4947;44.526;11.360;2023-04-03T00:12:45;8.90;99.90
9816;DHT22;4947;44.526;11.360;2023-04-03T00:15:13;8.90;99.90
9816;DHT22;4947;44.526;11.360;2023-04-03T00:17:41;8.90;99.90
9816;DHT22;4947;44.526;11.360;2023-04-03T00:20:09;8.90;99.90
9816;DHT22;4947;44.526;11.360;2023-04-03T00:22:39;8.90;99.90
9816;DHT22;4947;44.526;11.360;2023-04-03T00:25:07;8.80;99.90
9816;DHT22;4947;44.526;11.360;2023-04-03T00:27:36;8.80;99.90
9816;DHT22;4947;44.526;11.360;2023-04-03T00:30:05;8.80;99.90
9816;DHT22;4947;44.526;11.360;2023-04-03T00:32:33;8.70;99.90
9816;DHT22;4947;44.526;11.360;2023-04-03T00:35:00;8.80;99.90
9816;DHT22;4947;44.526;11.360;2023-04-03T00:37:27;8.70;99.90
9816;DHT22;4947;44.526;11.360;2023-04-03T00:39:56;8.60;99.90
9816;DHT22;4947;44.526;11.360;2023-04-03T00:42:24;8.50;99.90
9816;DHT22;4947;44.526;11.360;2023-04-03T00:47:56;8.50;99.90
9816;DHT22;4947;44.526;11.360;2023-04-03T00:50:25;8.60;99.90
9816;DHT22;4947;44.526;11.360;2023-04-03T00:52:53;8.60;99.90
9816;DHT22;4947;44.526;11.360;2023-04-03T00:55:23;8.50;99.90
9816;DHT22;4947;44.526;11.360;2023-04-03T00:57:52;8.60;99.90
9816;DHT22;4947;44.526;11.360;2023-04-03T01:00:21;8.60;99.90
9816;DHT22;4947;44.526;11.360;2023-04-03T01:02:50;8.60;99.90
9816;DHT22;4947;44.526;11.360;2023-04-03T01:05:19;8.50;99.90
9816;DHT22;4947;44.526;11.360;2023-04-03T01:07:48;8.40;99.90
9816;DHT22;4947;44.526;11.360;2023-04-03T01:10:18;8.40;99.90
9816;DHT22;4947;44.526;11.360;2023-04-03T01:12:49;8.30;99.90
9816;DHT22;4947;44.526;11.360;2023-04-03T01:15:19;8.30;99.90
9816;DHT22;4947;44.526;11.360;2023-04-03T01:17:48;8.20;99.90
9816;DHT22;4947;44.526;11.360;2023-04-03T01:20:43;8.20;99.90
9816;DHT22;4947;44.526;11.360;2023-04-03T01:23:22;8.00;99.90
9816;DHT22;4947;44.526;11.360;2023-04-03T01:25:53;7.90;99.90
9816;DHT22;4947;44.526;11.360;2023-04-03T01:28:24;8.00;99.90
9816;DHT22;4947;44.526;11.360;2023-04-03T01:30:58;8.00;99.90
9816;DHT22;4947;44.526;11.360;2023-04-03T01:33:29;7.80;99.90
9816;DHT22;4947;44.526;11.360;2023-04-03T01:35:57;7.80;99.90
9816;DHT22;4947;44.526;11.360;2023-04-03T01:38:25;7.80;99.90
9816;DHT22;4947;44.526;11.360;2023-04-03T01:40:53;7.80;99.90
9816;DHT22;4947;44.526;11.360;2023-04-03T01:43:20;7.70;99.90
9816;DHT22;4947;44.526;11.360;2023-04-03T01:45:48;7.70;99.90
9816;DHT22;4947;44.526;11.360;2023-04-03T01:48:16;7.70;99.90
9816;DHT22;4947;44.526;11.360;2023-04-03T01:50:45;7.70;99.90
9816;DHT22;4947;44.526;11.360;2023-04-03T01:53:15;7.60;99.90
9816;DHT22;4947;44.526;11.360;2023-04-03T01:55:42;7.60;99.90
9816;DHT22;4947;44.526;11.360;2023-04-03T01:58:10;7.60;99.90
9816;DHT22;4947;44.526;11.360;2023-04-03T02:00:37;7.50;99.90
9816;DHT22;4947;44.526;11.360;2023-04-03T02:03:05;7.60;99.90
9816;DHT22;4947;44.526;11.360;2023-04-03T02:05:32;7.50;99.90
9816;DHT22;4947;44.526;11.360;2023-04-03T02:08:01;7.60;99.90
9816;DHT22;4947;44.526;11.360;2023-04-03T02:10:29;7.50;99.90
9816;DHT22;4947;44.526;11.360;2023-04-03T02:12:56;7.50;99.90
9816;DHT22;4947;44.526;11.360;2023-04-03T02:15:24;7.60;99.90
9816;DHT22;4947;44.526;11.360;2023-04-03T02:17:51;7.70;99.90
9816;DHT22;4947;44.526;11.360;2023-04-03T02:20:19;7.80;99.90
9816;DHT22;4947;44.526;11.360;2023-04-03T02:22:47;7.80;99.90
9816;DHT22;4947;44.526;11.360;2023-04-03T02:25:16;7.80;99.90
9816;DHT22;4947;44.526;11.360;2023-04-03T02:27:45;7.80;99.90
9816;DHT22;4947;44.526;11.360;2023-04-03T02:30:13;7.90;99.90
9816;DHT22;4947;44.526;11.360;2023-04-03T02:32:42;8.00;99.90
9816;DHT22;4947;44.526;11.360;2023-04-03T02:35:09;8.10;99.90
9816;DHT22;4947;44.526;11.360;2023-04-03T02:37:37;8.10;99.90
9816;DHT22;4947;44.526;11.360;2023-04-03T02:40:06;8.20;99.90
9816;DHT22;4947;44.526;11.360;2023-04-03T02:42:34;8.20;99.90
9816;DHT22;4947;44.526;11.360;2023-04-03T02:45:02;8.20;99.90
9816;DHT22;4947;44.526;11.360;2023-04-03T02:47:30;8.30;99.90
9816;DHT22;4947;44.526;11.360;2023-04-03T02:49:58;8.20;99.90
9816;DHT22;4947;44.526;11.360;2023-04-03T02:52:25;8.20;99.90
9816;DHT22;4947;44.526;11.360;2023-04-03T02:54:58;8.20;99.90
9816;DHT22;4947;44.526;11.360;2023-04-03T02:57:26;8.20;99.90
9816;DHT22;4947;44.526;11.360;2023-04-03T02:59:55;8.20;99.90
9816;DHT22;4947;44.526;11.360;2023-04-03T03:02:23;8.30;99.90
9816;DHT22;4947;44.526;11.360;2023-04-03T03:04:50;8.30;99.90
9816;DHT22;4947;44.526;11.360;2023-04-03T03:07:18;8.40;99.90
9816;DHT22;4947;44.526;11.360;2023-04-03T03:09:45;8.40;99.90
9816;DHT22;4947;44.526;11.360;2023-04-03T03:12:13;8.40;99.90
9816;DHT22;4947;44.526;11.360;2023-04-03T03:14:40;8.40;99.90
9816;DHT22;4947;44.526;11.360;2023-04-03T03:17:09;8.40;99.90
9816;DHT22;4947;44.526;11.360;2023-04-03T03:19:37;8.40;99.90
9816;DHT22;4947;44.526;11.360;2023-04-03T03:22:04;8.40;99.90
9816;DHT22;4947;44.526;11.360;2023-04-03T03:24:32;8.40;99.90
9816;DHT22;4947;44.526;11.360;2023-04-03T03:27:00;8.40;99.90
9816;DHT22;4947;44.526;11.360;2023-04-03T03:29:27;8.40;99.90
9816;DHT22;4947;44.526;11.360;2023-04-03T03:31:54;8.30;99.90
9816;DHT22;4947;44.526;11.360;2023-04-03T03:34:24;8.30;99.90
9816;DHT22;4947;44.526;11.360;2023-04-03T03:36:51;8.40;99.90
9816;DHT22;4947;44.526;11.360;2023-04-03T03:39:19;8.30;99.90
9816;DHT22;4947;44.526;11.360;2023-04-03T03:41:49;8.30;99.90
9816;DHT22;4947;44.526;11.360;2023-04-03T03:44:18;8.30;99.90
9816;DHT22;4947;44.526;11.360;2023-04-03T03:46:46;8.20;99.90
9816;DHT22;4947;44.526;11.360;2023-04-03T03:49:13;8.20;99.90
9816;DHT22;4947;44.526;11.360;2023-04-03T03:51:43;8.20;99.90
9816;DHT22;4947;44.526;11.360;2023-04-03T03:54:10;8.30;99.90
9816;DHT22;4947;44.526;11.360;2023-04-03T03:56:38;8.20;99.90
9816;DHT22;4947;44.526;11.360;2023-04-03T03:59:05;8.20;99.90
9816;DHT22;4947;44.526;11.360;2023-04-03T04:01:33;8.20;99.90
9816;DHT22;4947;44.526;11.360;2023-04-03T04:04:00;8.30;99.90
9816;DHT22;4947;44.526;11.360;2023-04-03T04:06:28;8.30;99.90
9816;DHT22;4947;44.526;11.360;2023-04-03T04:08:57;8.30;99.90
9816;DHT22;4947;44.526;11.360;2023-04-03T04:11:28;8.30;99.90
9816;DHT22;4947;44.526;11.360;2023-04-03T04:13:55;8.40;99.90
9816;DHT22;4947;44.526;11.360;2023-04-03T04:16:23;8.30;99.90
9816;DHT22;4947;44.526;11.360;2023-04-03T04:18:50;8.40;99.90
9816;DHT22;4947;44.526;11.360;2023-04-03T04:21:17;8.30;99.90
9816;DHT22;4947;44.526;11.360;2023-04-03T04:23:45;8.30;99.90
9816;DHT22;4947;44.526;11.360;2023-04-03T04:26:14;8.40;99.90
9816;DHT22;4947;44.526;11.360;2023-04-03T04:28:41;8.40;99.90
9816;DHT22;4947;44.526;11.360;2023-04-03T04:31:09;8.30;99.90
9816;DHT22;4947;44.526;11.360;2023-04-03T04:33:36;8.30;99.90
9816;DHT22;4947;44.526;11.360;2023-04-03T04:36:04;8.20;99.90
9816;DHT22;4947;44.526;11.360;2023-04-03T04:38:32;8.20;99.90
9816;DHT22;4947;44.526;11.360;2023-04-03T04:40:59;8.30;99.90
9816;DHT22;4947;44.526;11.360;2023-04-03T04:43:28;8.20;99.90
9816;DHT22;4947;44.526;11.360;2023-04-03T04:46:03;8.30;99.90
9816;DHT22;4947;44.526;11.360;2023-04-03T04:48:31;8.20;99.90
9816;DHT22;4947;44.526;11.360;2023-04-03T04:50:59;8.20;99.90
9816;DHT22;4947;44.526;11.360;2023-04-03T04:53:27;8.10;99.90
9816;DHT22;4947;44.526;11.360;2023-04-03T04:55:54;8.10;99.90
9816;DHT22;4947;44.526;11.360;2023-04-03T04:58:21;8.20;99.90
9816;DHT22;4947;44.526;11.360;2023-04-03T05:00:58;8.10;99.90
9816;DHT22;4947;44.526;11.360;2023-04-03T05:03:26;8.10;99.90
9816;DHT22;4947;44.526;11.360;2023-04-03T05:05:53;8.10;99.90
9816;DHT22;4947;44.526;11.360;2023-04-03T05:08:21;8.10;99.90
9816;DHT22;4947;44.526;11.360;2023-04-03T05:10:49;8.00;99.90
9816;DHT22;4947;44.526;11.360;2023-04-03T05:13:16;8.00;99.90
9816;DHT22;4947;44.526;11.360;2023-04-03T05:15:44;8.00;99.90
9816;DHT22;4947;44.526;11.360;2023-04-03T05:18:13;8.00;99.90
9816;DHT22;4947;44.526;11.360;2023-04-03T05:20:41;8.00;99.90
9816;DHT22;4947;44.526;11.360;2023-04-03T05:23:11;8.10;99.90
9816;DHT22;4947;44.526;11.360;2023-04-03T05:25:39;8.10;99.90
9816;DHT22;4947;44.526;11.360;2023-04-03T05:28:07;8.20;99.90
9816;DHT22;4947;44.526;11.360;2023-04-03T05:30:34;8.20;99.90
9816;DHT22;4947;44.526;11.360;2023-04-03T05:33:02;8.20;99.90
9816;DHT22;4947;44.526;11.360;2023-04-03T05:35:32;8.20;99.90
9816;DHT22;4947;44.526;11.360;2023-04-03T05:37:59;8.20;99.90
9816;DHT22;4947;44.526;11.360;2023-04-03T05:40:27;8.10;99.90
9816;DHT22;4947;44.526;11.360;2023-04-03T05:42:55;8.20;99.90
9816;DHT22;4947;44.526;11.360;2023-04-03T05:45:22;8.30;99.90
9816;DHT22;4947;44.526;11.360;2023-04-03T05:47:50;8.40;99.90
9816;DHT22;4947;44.526;11.360;2023-04-03T05:50:18;8.40;99.90
9816;DHT22;4947;44.526;11.360;2023-04-03T05:52:49;8.50;99.90
9816;DHT22;4947;44.526;11.360;2023-04-03T05:55:16;8.70;99.90
9816;DHT22;4947;44.526;11.360;2023-04-03T05:57:44;8.80;99.90
9816;DHT22;4947;44.526;11.360;2023-04-03T06:00:13;8.90;99.90
9816;DHT22;4947;44.526;11.360;2023-04-03T06:02:42;9.00;99.90
9816;DHT22;4947;44.526;11.360;2023-04-03T06:05:10;9.20;99.90
9816;DHT22;4947;44.526;11.360;2023-04-03T06:07:38;9.30;99.90
9816;DHT22;4947;44.526;11.360;2023-04-03T06:10:11;9.40;99.90
9816;DHT22;4947;44.526;11.360;2023-04-03T06:12:38;9.50;99.90
9816;DHT22;4947;44.526;11.360;2023-04-03T06:15:10;9.60;99.90
9816;DHT22;4947;44.526;11.360;2023-04-03T06:17:37;9.60;99.90
9816;DHT22;4947;44.526;11.360;2023-04-03T06:20:06;9.70;99.90
9816;DHT22;4947;44.526;11.360;2023-04-03T06:22:33;9.80;99.90
9816;DHT22;4947;44.526;11.360;2023-04-03T06:25:01;10.00;99.90
9816;DHT22;4947;44.526;11.360;2023-04-03T06:27:30;10.10;99.90
9816;DHT22;4947;44.526;11.360;2023-04-03T06:29:58;10.20;99.90
9816;DHT22;4947;44.526;11.360;2023-04-03T06:32:25;10.30;99.90
9816;DHT22;4947;44.526;11.360;2023-04-03T06:34:53;10.40;99.90
9816;DHT22;4947;44.526;11.360;2023-04-03T06:37:22;10.50;99.90
9816;DHT22;4947;44.526;11.360;2023-04-03T06:39:51;10.50;99.90
9816;DHT22;4947;44.526;11.360;2023-04-03T06:42:19;10.50;99.90
9816;DHT22;4947;44.526;11.360;2023-04-03T06:44:51;10.70;99.90
9816;DHT22;4947;44.526;11.360;2023-04-03T06:47:18;10.80;99.90
9816;DHT22;4947;44.526;11.360;2023-04-03T06:49:46;11.00;99.90
9816;DHT22;4947;44.526;11.360;2023-04-03T06:52:14;11.10;99.90
9816;DHT22;4947;44.526;11.360;2023-04-03T06:54:42;11.30;99.90
9816;DHT22;4947;44.526;11.360;2023-04-03T06:57:09;11.50;99.90
9816;DHT22;4947;44.526;11.360;2023-04-03T06:59:37;11.70;99.90
9816;DHT22;4947;44.526;11.360;2023-04-03T07:02:06;11.70;99.90
9816;DHT22;4947;44.526;11.360;2023-04-03T07:04:34;11.90;99.90
9816;DHT22;4947;44.526;11.360;2023-04-03T07:07:01;12.10;99.90
9816;DHT22;4947;44.526;11.360;2023-04-03T07:09:31;12.20;99.90
9816;DHT22;4947;44.526;11.360;2023-04-03T07:11:59;12.30;99.90
9816;DHT22;4947;44.526;11.360;2023-04-03T07:14:27;12.60;99.90
9816;DHT22;4947;44.526;11.360;2023-04-03T07:16:55;12.80;99.90
9816;DHT22;4947;44.526;11.360;2023-04-03T07:19:24;13.30;99.90
9816;DHT22;4947;44.526;11.360;2023-04-03T07:21:53;13.80;99.90
9816;DHT22;4947;44.526;11.360;2023-04-03T07:24:20;14.40;98.60
9816;DHT22;4947;44.526;11.360;2023-04-03T07:26:49;15.00;95.10
9816;DHT22;4947;44.526;11.360;2023-04-03T07:29:16;15.40;95.20
9816;DHT22;4947;44.526;11.360;2023-04-03T07:31:44;15.50;93.50
9816;DHT22;4947;44.526;11.360;2023-04-03T07:34:11;16.20;92.80
9816;DHT22;4947;44.526;11.360;2023-04-03T07:36:44;16.90;91.30
9816;DHT22;4947;44.526;11.360;2023-04-03T07:39:11;16.70;87.50
9816;DHT22;4947;44.526;11.360;2023-04-03T07:41:39;17.10;89.00
9816;DHT22;4947;44.526;11.360;2023-04-03T07:44:07;17.70;83.90
9816;DHT22;4947;44.526;11.360;2023-04-03T07:46:35;17.90;81.20
9816;DHT22;4947;44.526;11.360;2023-04-03T07:49:02;17.80;79.30
9816;DHT22;4947;44.526;11.360;2023-04-03T07:51:30;18.10;79.10
9816;DHT22;4947;44.526;11.360;2023-04-03T07:53:59;18.90;76.90
9816;DHT22;4947;44.526;11.360;2023-04-03T07:56:26;19.50;74.80
9816;DHT22;4947;44.526;11.360;2023-04-03T07:58:54;19.40;71.30
9816;DHT22;4947;44.526;11.360;2023-04-03T08:01:22;20.10;69.60
9816;DHT22;4947;44.526;11.360;2023-04-03T08:03:49;20.50;64.60
9816;DHT22;4947;44.526;11.360;2023-04-03T08:06:17;20.40;61.50
9816;DHT22;4947;44.526;11.360;2023-04-03T08:08:45;19.40;74.30
9816;DHT22;4947;44.526;11.360;2023-04-03T08:11:14;20.10;69.90
9816;DHT22;4947;44.526;11.360;2023-04-03T08:13:41;20.70;66.30
9816;DHT22;4947;44.526;11.360;2023-04-03T08:16:14;20.60;67.30
9816;DHT22;4947;44.526;11.360;2023-04-03T08:18:43;19.90;67.60
9816;DHT22;4947;44.526;11.360;2023-04-03T08:21:12;20.10;70.10
9816;DHT22;4947;44.526;11.360;2023-04-03T08:23:40;21.00;66.70
9816;DHT22;4947;44.526;11.360;2023-04-03T08:26:10;21.30;63.50
9816;DHT22;4947;44.526;11.360;2023-04-03T08:28:40;20.90;67.40
9816;DHT22;4947;44.526;11.360;2023-04-03T08:31:10;21.00;67.80
9816;DHT22;4947;44.526;11.360;2023-04-03T08:33:39;20.70;67.70
9816;DHT22;4947;44.526;11.360;2023-04-03T08:36:15;20.40;69.10
9816;DHT22;4947;44.526;11.360;2023-04-03T08:38:45;20.60;70.50
9816;DHT22;4947;44.526;11.360;2023-04-03T08:41:16;20.10;66.00
9816;DHT22;4947;44.526;11.360;2023-04-03T08:44:07;19.70;70.60
9816;DHT22;4947;44.526;11.360;2023-04-03T08:46:47;18.60;78.20
9816;DHT22;4947;44.526;11.360;2023-04-03T08:49:22;17.00;91.40
9816;DHT22;4947;44.526;11.360;2023-04-03T08:51:52;16.90;92.70
9816;DHT22;4947;44.526;11.360;2023-04-03T08:54:26;17.00;93.00
9816;DHT22;4947;44.526;11.360;2023-04-03T08:56:55;16.60;93.30
9816;DHT22;4947;44.526;11.360;2023-04-03T08:59:31;16.60;95.00
9816;DHT22;4947;44.526;11.360;2023-04-03T09:02:02;16.40;93.90
9816;DHT22;4947;44.526;11.360;2023-04-03T09:04:32;15.60;98.50
9816;DHT22;4947;44.526;11.360;2023-04-03T09:07:08;15.30;99.90
9816;DHT22;4947;44.526;11.360;2023-04-03T09:09:41;15.20;99.90
9816;DHT22;4947;44.526;11.360;2023-04-03T09:12:17;14.70;99.90
9816;DHT22;4947;44.526;11.360;2023-04-03T09:14:55;14.30;99.90
9816;DHT22;4947;44.526;11.360;2023-04-03T09:17:35;14.30;99.90
9816;DHT22;4947;44.526;11.360;2023-04-03T09:20:13;14.00;99.90
9816;DHT22;4947;44.526;11.360;2023-04-03T09:22:43;13.90;99.90
9816;DHT22;4947;44.526;11.360;2023-04-03T09:25:15;13.80;99.90
9816;DHT22;4947;44.526;11.360;2023-04-03T09:27:45;13.50;99.90
9816;DHT22;4947;44.526;11.360;2023-04-03T09:30:16;13.40;99.90
9816;DHT22;4947;44.526;11.360;2023-04-03T09:32:45;13.10;99.90
9816;DHT22;4947;44.526;11.360;2023-04-03T09:35:21;13.10;99.90
9816;DHT22;4947;44.526;11.360;2023-04-03T09:37:51;12.90;99.90
9816;DHT22;4947;44.526;11.360;2023-04-03T09:40:44;12.90;99.90
9816;DHT22;4947;44.526;11.360;2023-04-03T09:43:24;12.90;99.90
9816;DHT22;4947;44.526;11.360;2023-04-03T09:45:53;12.90;99.90
9816;DHT22;4947;44.526;11.360;2023-04-03T09:48:22;13.00;99.90
9816;DHT22;4947;44.526;11.360;2023-04-03T09:50:55;12.90;99.90
9816;DHT22;4947;44.526;11.360;2023-04-03T09:53:30;13.00;99.90
9816;DHT22;4947;44.526;11.360;2023-04-03T09:56:00;13.00;99.90
9816;DHT22;4947;44.526;11.360;2023-04-03T09:58:30;13.00;99.90
9816;DHT22;4947;44.526;11.360;2023-04-03T10:01:02;12.90;99.90
9816;DHT22;4947;44.526;11.360;2023-04-03T10:03:32;12.90;99.90
9816;DHT22;4947;44.526;11.360;2023-04-03T10:06:00;12.80;99.90
9816;DHT22;4947;44.526;11.360;2023-04-03T10:08:30;12.80;99.90
9816;DHT22;4947;44.526;11.360;2023-04-03T10:11:15;12.60;99.90
9816;DHT22;4947;44.526;11.360;2023-04-03T10:13:51;12.70;99.90
9816;DHT22;4947;44.526;11.360;2023-04-03T10:16:24;12.80;99.90
9816;DHT22;4947;44.526;11.360;2023-04-03T10:19:25;12.70;99.90
9816;DHT22;4947;44.526;11.360;2023-04-03T10:21:59;12.90;99.90
9816;DHT22;4947;44.526;11.360;2023-04-03T10:24:35;13.00;99.90
9816;DHT22;4947;44.526;11.360;2023-04-03T10:27:06;13.00;99.90
9816;DHT22;4947;44.526;11.360;2023-04-03T10:29:45;13.10;99.90
9816;DHT22;4947;44.526;11.360;2023-04-03T10:32:24;13.30;99.90
9816;DHT22;4947;44.526;11.360;2023-04-03T10:34:59;13.40;99.90
9816;DHT22;4947;44.526;11.360;2023-04-03T10:37:32;13.50;99.90
9816;DHT22;4947;44.526;11.360;2023-04-03T10:40:20;13.50;99.90
9816;DHT22;4947;44.526;11.360;2023-04-03T10:42:54;13.50;99.90
9816;DHT22;4947;44.526;11.360;2023-04-03T10:45:27;13.50;99.90
9816;DHT22;4947;44.526;11.360;2023-04-03T10:48:04;13.50;99.90
9816;DHT22;4947;44.526;11.360;2023-04-03T10:50:43;13.60;99.90
9816;DHT22;4947;44.526;11.360;2023-04-03T10:53:18;14.10;99.90
9816;DHT22;4947;44.526;11.360;2023-04-03T10:55:53;14.10;97.60
9816;DHT22;4947;44.526;11.360;2023-04-03T10:58:29;14.20;96.30
9816;DHT22;4947;44.526;11.360;2023-04-03T11:01:02;14.40;96.40
9816;DHT22;4947;44.526;11.360;2023-04-03T11:03:36;14.60;94.80
9816;DHT22;4947;44.526;11.360;2023-04-03T11:06:10;14.80;92.00
9816;DHT22;4947;44.526;11.360;2023-04-03T11:08:43;15.20;93.30
9816;DHT22;4947;44.526;11.360;2023-04-03T11:11:14;15.40;78.60
9816;DHT22;4947;44.526;11.360;2023-04-03T11:13:46;15.30;73.80
9816;DHT22;4947;44.526;11.360;2023-04-03T11:16:19;15.30;78.90
9816;DHT22;4947;44.526;11.360;2023-04-03T11:18:52;15.50;75.50
9816;DHT22;4947;44.526;11.360;2023-04-03T11:21:24;15.50;74.80
9816;DHT22;4947;44.526;11.360;2023-04-03T11:23:56;15.70;75.40
9816;DHT22;4947;44.526;11.360;2023-04-03T11:26:27;16.00;74.10
9816;DHT22;4947;44.526;11.360;2023-04-03T11:28:59;16.20;67.10
9816;DHT22;4947;44.526;11.360;2023-04-03T11:32:01;16.20;69.70
9816;DHT22;4947;44.526;11.360;2023-04-03T11:34:35;15.90;72.10
9816;DHT22;4947;44.526;11.360;2023-04-03T11:37:11;15.60;72.00
9816;DHT22;4947;44.526;11.360;2023-04-03T11:39:49;15.60;71.50
9816;DHT22;4947;44.526;11.360;2023-04-03T11:42:25;15.40;75.00
9816;DHT22;4947;44.526;11.360;2023-04-03T11:45:16;15.40;69.80
9816;DHT22;4947;44.526;11.360;2023-04-03T11:47:45;15.60;74.80
9816;DHT22;4947;44.526;11.360;2023-04-03T11:53:35;15.50;70.20
9816;DHT22;4947;44.526;11.360;2023-04-03T11:56:30;15.50;70.70
9816;DHT22;4947;44.526;11.360;2023-04-03T11:59:22;15.40;69.00
9816;DHT22;4947;44.526;11.360;2023-04-03T12:01:51;15.30;69.70
9816;DHT22;4947;44.526;11.360;2023-04-03T12:04:24;15.40;74.20
9816;DHT22;4947;44.526;11.360;2023-04-03T12:07:00;15.50;71.70
9816;DHT22;4947;44.526;11.360;2023-04-03T12:09:57;15.60;68.00
9816;DHT22;4947;44.526;11.360;2023-04-03T12:12:31;15.40;70.90
9816;DHT22;4947;44.526;11.360;2023-04-03T12:15:20;15.20;71.50
9816;DHT22;4947;44.526;11.360;2023-04-03T12:17:48;15.20;68.40
9816;DHT22;4947;44.526;11.360;2023-04-03T12:23:28;15.60;68.40
9816;DHT22;4947;44.526;11.360;2023-04-03T12:26:04;15.50;62.40
9816;DHT22;4947;44.526;11.360;2023-04-03T12:28:41;15.60;66.80
9816;DHT22;4947;44.526;11.360;2023-04-03T12:31:10;15.50;64.40
9816;DHT22;4947;44.526;11.360;2023-04-03T12:33:51;15.40;64.20
9816;DHT22;4947;44.526;11.360;2023-04-03T12:36:30;15.30;64.00
9816;DHT22;4947;44.526;11.360;2023-04-03T12:39:31;15.40;65.60
9816;DHT22;4947;44.526;11.360;2023-04-03T12:42:15;15.40;62.60
9816;DHT22;4947;44.526;11.360;2023-04-03T12:44:49;15.20;61.80
9816;DHT22;4947;44.526;11.360;2023-04-03T12:47:28;15.40;63.90
9816;DHT22;4947;44.526;11.360;2023-04-03T12:49:59;15.40;63.80
9816;DHT22;4947;44.526;11.360;2023-04-03T12:52:41;15.20;61.70
9816;DHT22;4947;44.526;11.360;2023-04-03T12:55:15;15.10;61.10
9816;DHT22;4947;44.526;11.360;2023-04-03T12:57:44;15.10;60.50
9816;DHT22;4947;44.526;11.360;2023-04-03T13:00:20;15.30;61.90
9816;DHT22;4947;44.526;11.360;2023-04-03T13:02:48;15.40;62.10
9816;DHT22;4947;44.526;11.360;2023-04-03T13:05:18;15.30;60.80
9816;DHT22;4947;44.526;11.360;2023-04-03T13:07:49;15.30;62.60
9816;DHT22;4947;44.526;11.360;2023-04-03T13:10:17;15.50;62.70
9816;DHT22;4947;44.526;11.360;2023-04-03T13:12:49;15.50;68.20
9816;DHT22;4947;44.526;11.360;2023-04-03T13:15:19;15.20;61.40
9816;DHT22;4947;44.526;11.360;2023-04-03T13:17:49;15.20;62.30
9816;DHT22;4947;44.526;11.360;2023-04-03T13:20:22;15.10;61.40
9816;DHT22;4947;44.526;11.360;2023-04-03T13:22:55;15.10;62.00
9816;DHT22;4947;44.526;11.360;2023-04-03T13:25:24;14.90;64.20
9816;DHT22;4947;44.526;11.360;2023-04-03T13:27:55;15.00;62.50
9816;DHT22;4947;44.526;11.360;2023-04-03T13:30:28;15.10;60.80
9816;DHT22;4947;44.526;11.360;2023-04-03T13:32:59;15.10;59.70
9816;DHT22;4947;44.526;11.360;2023-04-03T13:35:36;15.10;59.80
9816;DHT22;4947;44.526;11.360;2023-04-03T13:38:06;14.80;59.80
9816;DHT22;4947;44.526;11.360;2023-04-03T13:40:47;14.60;61.70
9816;DHT22;4947;44.526;11.360;2023-04-03T13:43:21;14.60;60.80
9816;DHT22;4947;44.526;11.360;2023-04-03T13:46:04;14.50;59.30
9816;DHT22;4947;44.526;11.360;2023-04-03T13:48:38;14.60;62.00
9816;DHT22;4947;44.526;11.360;2023-04-03T13:51:16;14.70;60.30
9816;DHT22;4947;44.526;11.360;2023-04-03T13:53:47;14.60;61.20
9816;DHT22;4947;44.526;11.360;2023-04-03T13:56:20;14.70;61.50
9816;DHT22;4947;44.526;11.360;2023-04-03T13:59:21;14.60;58.20
9816;DHT22;4947;44.526;11.360;2023-04-03T14:01:55;14.60;58.20
9816;DHT22;4947;44.526;11.360;2023-04-03T14:04:47;14.50;58.80
9816;DHT22;4947;44.526;11.360;2023-04-03T14:07:16;14.70;61.60
9816;DHT22;4947;44.526;11.360;2023-04-03T14:09:47;14.70;58.60
9816;DHT22;4947;44.526;11.360;2023-04-03T14:12:17;14.70;58.60
9816;DHT22;4947;44.526;11.360;2023-04-03T14:14:46;14.70;61.40
9816;DHT22;4947;44.526;11.360;2023-04-03T14:17:17;14.60;58.90
9816;DHT22;4947;44.526;11.360;2023-04-03T14:19:46;14.50;59.70
9816;DHT22;4947;44.526;11.360;2023-04-03T14:22:15;14.50;59.20
9816;DHT22;4947;44.526;11.360;2023-04-03T14:24:44;14.60;58.30
9816;DHT22;4947;44.526;11.360;2023-04-03T14:27:16;14.60;59.00
9816;DHT22;4947;44.526;11.360;2023-04-03T14:29:46;14.60;58.30
9816;DHT22;4947;44.526;11.360;2023-04-03T14:32:18;14.60;59.20
9816;DHT22;4947;44.526;11.360;2023-04-03T14:34:48;14.70;59.00
9816;DHT22;4947;44.526;11.360;2023-04-03T14:37:18;14.70;59.20
9816;DHT22;4947;44.526;11.360;2023-04-03T14:39:46;14.50;57.20
9816;DHT22;4947;44.526;11.360;2023-04-03T14:42:16;14.30;58.30
9816;DHT22;4947;44.526;11.360;2023-04-03T14:44:46;14.30;60.20
9816;DHT22;4947;44.526;11.360;2023-04-03T14:47:16;14.40;58.10
9816;DHT22;4947;44.526;11.360;2023-04-03T14:49:44;14.30;58.00
9816;DHT22;4947;44.526;11.360;2023-04-03T14:52:18;14.20;60.10
9816;DHT22;4947;44.526;11.360;2023-04-03T14:54:46;14.20;59.90
9816;DHT22;4947;44.526;11.360;2023-04-03T14:57:15;14.20;61.50
9816;DHT22;4947;44.526;11.360;2023-04-03T14:59:46;14.20;59.80
9816;DHT22;4947;44.526;11.360;2023-04-03T15:02:26;14.20;60.40
9816;DHT22;4947;44.526;11.360;2023-04-03T15:04:58;14.30;61.30
9816;DHT22;4947;44.526;11.360;2023-04-03T15:07:27;14.30;60.90
9816;DHT22;4947;44.526;11.360;2023-04-03T15:09:56;14.20;59.10
9816;DHT22;4947;44.526;11.360;2023-04-03T15:12:24;14.20;59.70
9816;DHT22;4947;44.526;11.360;2023-04-03T15:14:54;14.20;58.90
9816;DHT22;4947;44.526;11.360;2023-04-03T15:17:22;14.10;59.50
9816;DHT22;4947;44.526;11.360;2023-04-03T15:19:50;14.10;59.70
9816;DHT22;4947;44.526;11.360;2023-04-03T15:22:23;14.00;59.80
9816;DHT22;4947;44.526;11.360;2023-04-03T15:24:51;14.00;59.90
9816;DHT22;4947;44.526;11.360;2023-04-03T15:27:19;14.00;59.90
9816;DHT22;4947;44.526;11.360;2023-04-03T15:29:46;14.10;61.70
9816;DHT22;4947;44.526;11.360;2023-04-03T15:32:15;14.10;60.20
9816;DHT22;4947;44.526;11.360;2023-04-03T15:34:43;14.10;59.60
9816;DHT22;4947;44.526;11.360;2023-04-03T15:37:10;14.10;60.10
9816;DHT22;4947;44.526;11.360;2023-04-03T15:39:38;14.10;60.10
9816;DHT22;4947;44.526;11.360;2023-04-03T15:42:05;14.10;57.90
9816;DHT22;4947;44.526;11.360;2023-04-03T15:44:33;14.10;57.10
9816;DHT22;4947;44.526;11.360;2023-04-03T15:47:01;14.10;58.20
9816;DHT22;4947;44.526;11.360;2023-04-03T15:49:32;14.10;57.30
9816;DHT22;4947;44.526;11.360;2023-04-03T15:52:00;14.00;58.50
9816;DHT22;4947;44.526;11.360;2023-04-03T15:54:28;13.90;59.00
9816;DHT22;4947;44.526;11.360;2023-04-03T15:56:56;13.90;58.50
9816;DHT22;4947;44.526;11.360;2023-04-03T15:59:24;13.90;58.20
9816;DHT22;4947;44.526;11.360;2023-04-03T16:01:51;13.80;58.50
9816;DHT22;4947;44.526;11.360;2023-04-03T16:04:19;13.80;58.00
9816;DHT22;4947;44.526;11.360;2023-04-03T16:06:50;13.80;58.40
9816;DHT22;4947;44.526;11.360;2023-04-03T16:09:17;13.80;59.00
9816;DHT22;4947;44.526;11.360;2023-04-03T16:11:45;13.80;58.20
9816;DHT22;4947;44.526;11.360;2023-04-03T16:14:12;13.80;59.80
9816;DHT22;4947;44.526;11.360;2023-04-03T16:16:40;13.80;59.10
9816;DHT22;4947;44.526;11.360;2023-04-03T16:19:09;13.90;59.90
9816;DHT22;4947;44.526;11.360;2023-04-03T16:21:36;13.80;59.20
9816;DHT22;4947;44.526;11.360;2023-04-03T16:24:05;13.80;59.50